sensor_id;sensor_type;location;lat;lon;timestamp;P1;durP1;ratioP1;P2;durP2;ratioP2
2542;SDS011;1116;51.502;7.414;2022-12-10T00:00:49;50.38;;;29.35;;
2542;SDS011;1116;51.502;7.414;2022-12-10T00:03:22;48.05;;;27.98;;
2542;SDS011;1116;51.502;7.414;2022-12-10T00:05:58;51.88;;;29.25;;
2542;SDS011;1116;51.502;7.414;2022-12-10T00:08:30;50.17;;;28.33;;
2542;SDS011;1116;51.502;7.414;2022-12-10T00:11:05;52.00;;;29.33;;
2542;SDS011;1116;51.502;7.414;2022-12-10T00:13:38;54.53;;;31.13;;
2542;SDS011;1116;51.502;7.414;2022-12-10T00:16:12;48.28;;;29.20;;
2542;SDS011;1116;51.502;7.414;2022-12-10T00:18:50;49.65;;;28.25;;
2542;SDS011;1116;51.502;7.414;2022-12-10T00:21:22;52.72;;;28.13;;
2542;SDS011;1116;51.502;7.414;2022-12-10T00:23:54;59.28;;;30.23;;
2542;SDS011;1116;51.502;7.414;2022-12-10T00:26:32;54.65;;;29.63;;
2542;SDS011;1116;51.502;7.414;2022-12-10T00:29:09;52.72;;;29.45;;
2542;SDS011;1116;51.502;7.414;2022-12-10T00:31:44;49.15;;;28.35;;
2542;SDS011;1116;51.502;7.414;2022-12-10T00:34:17;49.38;;;30.05;;
2542;SDS011;1116;51.502;7.414;2022-12-10T00:36:50;49.60;;;29.10;;
2542;SDS011;1116;51.502;7.414;2022-12-10T00:39:21;49.05;;;27.25;;
2542;SDS011;1116;51.502;7.414;2022-12-10T00:41:54;46.55;;;27.60;;
2542;SDS011;1116;51.502;7.414;2022-12-10T00:44:26;48.08;;;28.65;;
2542;SDS011;1116;51.502;7.414;2022-12-10T00:46:58;48.28;;;27.05;;
2542;SDS011;1116;51.502;7.414;2022-12-10T00:49:29;45.65;;;26.77;;
2542;SDS011;1116;51.502;7.414;2022-12-10T00:52:01;50.05;;;28.85;;
2542;SDS011;1116;51.502;7.414;2022-12-10T00:54:32;57.58;;;28.77;;
2542;SDS011;1116;51.502;7.414;2022-12-10T00:57:05;52.13;;;28.75;;
2542;SDS011;1116;51.502;7.414;2022-12-10T00:59:36;48.38;;;27.25;;
2542;SDS011;1116;51.502;7.414;2022-12-10T01:02:07;48.95;;;28.42;;
2542;SDS011;1116;51.502;7.414;2022-12-10T01:04:38;44.38;;;26.95;;
2542;SDS011;1116;51.502;7.414;2022-12-10T01:07:09;49.65;;;28.20;;
2542;SDS011;1116;51.502;7.414;2022-12-10T01:09:43;47.75;;;26.67;;
2542;SDS011;1116;51.502;7.414;2022-12-10T01:12:17;54.05;;;29.27;;
2542;SDS011;1116;51.502;7.414;2022-12-10T01:14:48;49.38;;;28.85;;
2542;SDS011;1116;51.502;7.414;2022-12-10T01:17:18;60.78;;;30.05;;
2542;SDS011;1116;51.502;7.414;2022-12-10T01:19:50;51.20;;;29.25;;
2542;SDS011;1116;51.502;7.414;2022-12-10T01:22:21;53.35;;;31.10;;
2542;SDS011;1116;51.502;7.414;2022-12-10T01:24:52;51.08;;;29.75;;
2542;SDS011;1116;51.502;7.414;2022-12-10T01:27:25;49.85;;;28.10;;
2542;SDS011;1116;51.502;7.414;2022-12-10T01:30:00;47.92;;;28.33;;
2542;SDS011;1116;51.502;7.414;2022-12-10T01:32:30;43.58;;;25.40;;
2542;SDS011;1116;51.502;7.414;2022-12-10T01:35:01;37.55;;;23.83;;
2542;SDS011;1116;51.502;7.414;2022-12-10T01:37:32;47.95;;;26.88;;
2542;SDS011;1116;51.502;7.414;2022-12-10T01:40:06;42.92;;;25.90;;
2542;SDS011;1116;51.502;7.414;2022-12-10T01:42:40;40.70;;;26.45;;
2542;SDS011;1116;51.502;7.414;2022-12-10T01:45:11;46.90;;;27.63;;
2542;SDS011;1116;51.502;7.414;2022-12-10T01:47:43;45.30;;;27.38;;
2542;SDS011;1116;51.502;7.414;2022-12-10T01:50:14;46.20;;;27.50;;
2542;SDS011;1116;51.502;7.414;2022-12-10T01:52:45;46.78;;;27.45;;
2542;SDS011;1116;51.502;7.414;2022-12-10T01:58:22;45.75;;;27.25;;
2542;SDS011;1116;51.502;7.414;2022-12-10T02:00:59;43.13;;;26.40;;
2542;SDS011;1116;51.502;7.414;2022-12-10T02:03:40;49.90;;;28.42;;
2542;SDS011;1116;51.502;7.414;2022-12-10T02:06:25;48.45;;;27.42;;
2542;SDS011;1116;51.502;7.414;2022-12-10T02:09:04;41.85;;;24.65;;
2542;SDS011;1116;51.502;7.414;2022-12-10T02:11:43;48.08;;;25.38;;
2542;SDS011;1116;51.502;7.414;2022-12-10T02:14:23;40.95;;;25.17;;
2542;SDS011;1116;51.502;7.414;2022-12-10T02:17:05;42.50;;;26.10;;
2542;SDS011;1116;51.502;7.414;2022-12-10T02:19:51;43.78;;;24.25;;
2542;SDS011;1116;51.502;7.414;2022-12-10T02:22:33;39.95;;;24.45;;
2542;SDS011;1116;51.502;7.414;2022-12-10T02:25:09;36.90;;;23.55;;
2542;SDS011;1116;51.502;7.414;2022-12-10T02:27:45;40.10;;;24.90;;
2542;SDS011;1116;51.502;7.414;2022-12-10T02:30:21;41.00;;;24.42;;
2542;SDS011;1116;51.502;7.414;2022-12-10T02:32:56;42.83;;;24.73;;
2542;SDS011;1116;51.502;7.414;2022-12-10T02:35:30;42.28;;;25.35;;
2542;SDS011;1116;51.502;7.414;2022-12-10T02:38:07;46.25;;;27.42;;
2542;SDS011;1116;51.502;7.414;2022-12-10T02:40:42;41.92;;;26.15;;
2542;SDS011;1116;51.502;7.414;2022-12-10T02:43:18;44.22;;;26.30;;
2542;SDS011;1116;51.502;7.414;2022-12-10T02:45:54;47.40;;;27.98;;
2542;SDS011;1116;51.502;7.414;2022-12-10T02:48:26;56.00;;;31.95;;
2542;SDS011;1116;51.502;7.414;2022-12-10T02:50:58;49.20;;;30.45;;
2542;SDS011;1116;51.502;7.414;2022-12-10T02:53:29;53.28;;;30.75;;
2542;SDS011;1116;51.502;7.414;2022-12-10T02:56:04;47.38;;;29.10;;
2542;SDS011;1116;51.502;7.414;2022-12-10T02:58:45;52.75;;;30.70;;
2542;SDS011;1116;51.502;7.414;2022-12-10T03:01:28;54.97;;;30.65;;
2542;SDS011;1116;51.502;7.414;2022-12-10T03:04:10;57.58;;;31.35;;
2542;SDS011;1116;51.502;7.414;2022-12-10T03:06:45;54.75;;;31.10;;
2542;SDS011;1116;51.502;7.414;2022-12-10T03:09:21;51.35;;;29.67;;
2542;SDS011;1116;51.502;7.414;2022-12-10T03:11:56;50.78;;;29.70;;
2542;SDS011;1116;51.502;7.414;2022-12-10T03:14:31;53.15;;;29.70;;
2542;SDS011;1116;51.502;7.414;2022-12-10T03:17:06;53.95;;;30.65;;
2542;SDS011;1116;51.502;7.414;2022-12-10T03:19:37;55.05;;;32.50;;
2542;SDS011;1116;51.502;7.414;2022-12-10T03:22:12;56.97;;;33.25;;
2542;SDS011;1116;51.502;7.414;2022-12-10T03:24:46;52.42;;;31.13;;
2542;SDS011;1116;51.502;7.414;2022-12-10T03:27:19;59.20;;;32.05;;
2542;SDS011;1116;51.502;7.414;2022-12-10T03:29:56;54.58;;;32.47;;
2542;SDS011;1116;51.502;7.414;2022-12-10T03:32:31;59.20;;;33.03;;
2542;SDS011;1116;51.502;7.414;2022-12-10T03:35:03;47.13;;;31.58;;
2542;SDS011;1116;51.502;7.414;2022-12-10T03:37:38;53.75;;;32.65;;
2542;SDS011;1116;51.502;7.414;2022-12-10T03:40:11;46.70;;;30.98;;
2542;SDS011;1116;51.502;7.414;2022-12-10T03:42:45;55.15;;;32.28;;
2542;SDS011;1116;51.502;7.414;2022-12-10T03:45:16;60.63;;;34.45;;
2542;SDS011;1116;51.502;7.414;2022-12-10T03:47:49;64.22;;;35.88;;
2542;SDS011;1116;51.502;7.414;2022-12-10T03:50:20;50.47;;;32.55;;
2542;SDS011;1116;51.502;7.414;2022-12-10T03:52:51;57.63;;;34.85;;
2542;SDS011;1116;51.502;7.414;2022-12-10T03:55:22;53.20;;;32.75;;
2542;SDS011;1116;51.502;7.414;2022-12-10T03:57:53;56.85;;;34.55;;
2542;SDS011;1116;51.502;7.414;2022-12-10T04:00:24;55.78;;;34.33;;
2542;SDS011;1116;51.502;7.414;2022-12-10T04:02:58;53.25;;;34.08;;
2542;SDS011;1116;51.502;7.414;2022-12-10T04:05:29;61.30;;;37.97;;
2542;SDS011;1116;51.502;7.414;2022-12-10T04:08:00;54.95;;;33.28;;
2542;SDS011;1116;51.502;7.414;2022-12-10T04:10:34;48.88;;;33.08;;
2542;SDS011;1116;51.502;7.414;2022-12-10T04:13:05;54.10;;;34.22;;
2542;SDS011;1116;51.502;7.414;2022-12-10T04:15:49;54.17;;;31.27;;
2542;SDS011;1116;51.502;7.414;2022-12-10T04:18:34;51.20;;;32.22;;
2542;SDS011;1116;51.502;7.414;2022-12-10T04:21:05;51.97;;;33.92;;
2542;SDS011;1116;51.502;7.414;2022-12-10T04:23:49;52.33;;;33.53;;
2542;SDS011;1116;51.502;7.414;2022-12-10T04:26:32;47.63;;;29.95;;
2542;SDS011;1116;51.502;7.414;2022-12-10T04:29:15;46.15;;;30.95;;
2542;SDS011;1116;51.502;7.414;2022-12-10T04:31:46;53.03;;;33.45;;
2542;SDS011;1116;51.502;7.414;2022-12-10T04:34:25;43.85;;;29.15;;
2542;SDS011;1116;51.502;7.414;2022-12-10T04:36:59;46.95;;;30.30;;
2542;SDS011;1116;51.502;7.414;2022-12-10T04:39:32;41.05;;;27.40;;
2542;SDS011;1116;51.502;7.414;2022-12-10T04:42:04;49.70;;;32.35;;
2542;SDS011;1116;51.502;7.414;2022-12-10T04:44:37;52.65;;;33.30;;
2542;SDS011;1116;51.502;7.414;2022-12-10T04:47:09;44.33;;;28.27;;
2542;SDS011;1116;51.502;7.414;2022-12-10T04:49:43;48.85;;;29.90;;
2542;SDS011;1116;51.502;7.414;2022-12-10T04:55:09;43.95;;;28.58;;
2542;SDS011;1116;51.502;7.414;2022-12-10T04:57:44;44.50;;;28.75;;
2542;SDS011;1116;51.502;7.414;2022-12-10T05:00:15;41.78;;;27.90;;
2542;SDS011;1116;51.502;7.414;2022-12-10T05:02:47;43.08;;;27.42;;
2542;SDS011;1116;51.502;7.414;2022-12-10T05:05:22;35.85;;;24.10;;
2542;SDS011;1116;51.502;7.414;2022-12-10T05:07:53;39.35;;;26.42;;
2542;SDS011;1116;51.502;7.414;2022-12-10T05:10:24;44.80;;;26.92;;
2542;SDS011;1116;51.502;7.414;2022-12-10T05:12:55;40.42;;;26.52;;
2542;SDS011;1116;51.502;7.414;2022-12-10T05:15:26;44.83;;;28.15;;
2542;SDS011;1116;51.502;7.414;2022-12-10T05:17:57;39.75;;;26.95;;
2542;SDS011;1116;51.502;7.414;2022-12-10T05:20:30;38.42;;;26.48;;
2542;SDS011;1116;51.502;7.414;2022-12-10T05:23:01;35.95;;;24.58;;
2542;SDS011;1116;51.502;7.414;2022-12-10T05:25:44;40.53;;;26.40;;
2542;SDS011;1116;51.502;7.414;2022-12-10T05:28:24;43.88;;;27.95;;
2542;SDS011;1116;51.502;7.414;2022-12-10T05:30:55;40.78;;;26.60;;
2542;SDS011;1116;51.502;7.414;2022-12-10T05:33:26;45.58;;;29.23;;
2542;SDS011;1116;51.502;7.414;2022-12-10T05:36:03;50.05;;;28.55;;
2542;SDS011;1116;51.502;7.414;2022-12-10T05:38:34;39.40;;;25.90;;
2542;SDS011;1116;51.502;7.414;2022-12-10T05:41:06;44.20;;;27.42;;
2542;SDS011;1116;51.502;7.414;2022-12-10T05:43:42;42.80;;;25.83;;
2542;SDS011;1116;51.502;7.414;2022-12-10T05:46:14;36.30;;;23.45;;
2542;SDS011;1116;51.502;7.414;2022-12-10T05:48:47;43.42;;;26.83;;
2542;SDS011;1116;51.502;7.414;2022-12-10T05:51:22;39.22;;;25.50;;
2542;SDS011;1116;51.502;7.414;2022-12-10T05:53:54;38.58;;;24.48;;
2542;SDS011;1116;51.502;7.414;2022-12-10T05:56:26;38.67;;;25.08;;
2542;SDS011;1116;51.502;7.414;2022-12-10T05:58:59;39.97;;;25.00;;
2542;SDS011;1116;51.502;7.414;2022-12-10T06:01:37;36.35;;;24.58;;
2542;SDS011;1116;51.502;7.414;2022-12-10T06:04:09;42.30;;;26.08;;
2542;SDS011;1116;51.502;7.414;2022-12-10T06:06:42;36.55;;;25.48;;
2542;SDS011;1116;51.502;7.414;2022-12-10T06:09:14;32.97;;;21.20;;
2542;SDS011;1116;51.502;7.414;2022-12-10T06:11:45;37.13;;;24.35;;
2542;SDS011;1116;51.502;7.414;2022-12-10T06:14:16;35.63;;;22.67;;
2542;SDS011;1116;51.502;7.414;2022-12-10T06:16:47;33.25;;;20.80;;
2542;SDS011;1116;51.502;7.414;2022-12-10T06:19:17;33.42;;;22.40;;
2542;SDS011;1116;51.502;7.414;2022-12-10T06:21:52;32.70;;;21.55;;
2542;SDS011;1116;51.502;7.414;2022-12-10T06:24:23;30.25;;;20.63;;
2542;SDS011;1116;51.502;7.414;2022-12-10T06:26:53;32.03;;;22.08;;
2542;SDS011;1116;51.502;7.414;2022-12-10T06:29:25;35.55;;;23.30;;
2542;SDS011;1116;51.502;7.414;2022-12-10T06:31:55;29.83;;;21.45;;
2542;SDS011;1116;51.502;7.414;2022-12-10T06:34:26;36.13;;;22.27;;
2542;SDS011;1116;51.502;7.414;2022-12-10T06:37:00;37.83;;;24.65;;
2542;SDS011;1116;51.502;7.414;2022-12-10T06:39:31;32.65;;;21.98;;
2542;SDS011;1116;51.502;7.414;2022-12-10T06:42:02;31.08;;;21.45;;
2542;SDS011;1116;51.502;7.414;2022-12-10T06:44:33;32.15;;;21.33;;
2542;SDS011;1116;51.502;7.414;2022-12-10T06:47:04;32.42;;;21.73;;
2542;SDS011;1116;51.502;7.414;2022-12-10T06:49:35;34.20;;;21.80;;
2542;SDS011;1116;51.502;7.414;2022-12-10T06:52:09;32.28;;;22.10;;
2542;SDS011;1116;51.502;7.414;2022-12-10T06:54:40;36.22;;;22.92;;
2542;SDS011;1116;51.502;7.414;2022-12-10T06:57:11;34.85;;;22.00;;
2542;SDS011;1116;51.502;7.414;2022-12-10T06:59:42;42.25;;;25.30;;
2542;SDS011;1116;51.502;7.414;2022-12-10T07:02:13;36.80;;;23.77;;
2542;SDS011;1116;51.502;7.414;2022-12-10T07:04:44;38.90;;;21.80;;
2542;SDS011;1116;51.502;7.414;2022-12-10T07:07:19;30.42;;;22.08;;
2542;SDS011;1116;51.502;7.414;2022-12-10T07:09:50;35.60;;;22.05;;
2542;SDS011;1116;51.502;7.414;2022-12-10T07:12:21;36.95;;;22.67;;
2542;SDS011;1116;51.502;7.414;2022-12-10T07:14:53;34.47;;;22.40;;
2542;SDS011;1116;51.502;7.414;2022-12-10T07:17:24;35.35;;;21.60;;
2542;SDS011;1116;51.502;7.414;2022-12-10T07:19:55;39.00;;;22.40;;
2542;SDS011;1116;51.502;7.414;2022-12-10T07:22:28;35.45;;;22.08;;
2542;SDS011;1116;51.502;7.414;2022-12-10T07:24:59;37.17;;;22.13;;
2542;SDS011;1116;51.502;7.414;2022-12-10T07:27:33;38.28;;;24.05;;
2542;SDS011;1116;51.502;7.414;2022-12-10T07:30:07;41.13;;;24.40;;
2542;SDS011;1116;51.502;7.414;2022-12-10T07:32:39;39.85;;;23.75;;
2542;SDS011;1116;51.502;7.414;2022-12-10T07:35:10;38.40;;;23.52;;
2542;SDS011;1116;51.502;7.414;2022-12-10T07:37:43;39.45;;;25.45;;
2542;SDS011;1116;51.502;7.414;2022-12-10T07:42:49;36.75;;;23.23;;
2542;SDS011;1116;51.502;7.414;2022-12-10T07:48:15;31.35;;;20.17;;
2542;SDS011;1116;51.502;7.414;2022-12-10T07:50:45;27.90;;;18.15;;
2542;SDS011;1116;51.502;7.414;2022-12-10T07:53:25;30.52;;;19.40;;
2542;SDS011;1116;51.502;7.414;2022-12-10T07:55:56;27.20;;;18.95;;
2542;SDS011;1116;51.502;7.414;2022-12-10T07:58:31;31.85;;;20.35;;
2542;SDS011;1116;51.502;7.414;2022-12-10T08:01:05;29.80;;;19.00;;
2542;SDS011;1116;51.502;7.414;2022-12-10T08:03:38;31.67;;;20.60;;
2542;SDS011;1116;51.502;7.414;2022-12-10T08:06:10;30.08;;;18.90;;
2542;SDS011;1116;51.502;7.414;2022-12-10T08:08:45;34.22;;;20.80;;
2542;SDS011;1116;51.502;7.414;2022-12-10T08:11:17;31.90;;;19.25;;
2542;SDS011;1116;51.502;7.414;2022-12-10T08:13:50;34.10;;;21.33;;
2542;SDS011;1116;51.502;7.414;2022-12-10T08:16:26;32.78;;;20.75;;
2542;SDS011;1116;51.502;7.414;2022-12-10T08:18:59;28.42;;;18.58;;
2542;SDS011;1116;51.502;7.414;2022-12-10T08:21:33;27.42;;;19.42;;
2542;SDS011;1116;51.502;7.414;2022-12-10T08:24:07;29.85;;;19.75;;
2542;SDS011;1116;51.502;7.414;2022-12-10T08:26:38;30.15;;;19.25;;
2542;SDS011;1116;51.502;7.414;2022-12-10T08:29:09;32.40;;;20.23;;
2542;SDS011;1116;51.502;7.414;2022-12-10T08:31:40;30.77;;;19.92;;
2542;SDS011;1116;51.502;7.414;2022-12-10T08:34:11;30.98;;;19.50;;
2542;SDS011;1116;51.502;7.414;2022-12-10T08:36:44;27.85;;;18.95;;
2542;SDS011;1116;51.502;7.414;2022-12-10T08:39:18;28.17;;;18.20;;
2542;SDS011;1116;51.502;7.414;2022-12-10T08:41:49;29.65;;;19.80;;
2542;SDS011;1116;51.502;7.414;2022-12-10T08:44:22;25.90;;;17.77;;
2542;SDS011;1116;51.502;7.414;2022-12-10T08:46:53;25.67;;;18.50;;
2542;SDS011;1116;51.502;7.414;2022-12-10T08:49:24;28.55;;;18.27;;
2542;SDS011;1116;51.502;7.414;2022-12-10T08:51:55;28.90;;;18.77;;
2542;SDS011;1116;51.502;7.414;2022-12-10T08:54:28;32.88;;;18.88;;
2542;SDS011;1116;51.502;7.414;2022-12-10T08:56:59;29.17;;;19.25;;
2542;SDS011;1116;51.502;7.414;2022-12-10T08:59:30;27.15;;;18.55;;
2542;SDS011;1116;51.502;7.414;2022-12-10T09:02:03;26.77;;;18.15;;
2542;SDS011;1116;51.502;7.414;2022-12-10T09:04:34;26.33;;;18.33;;
2542;SDS011;1116;51.502;7.414;2022-12-10T09:07:06;28.23;;;18.60;;
2542;SDS011;1116;51.502;7.414;2022-12-10T09:09:42;27.75;;;18.63;;
2542;SDS011;1116;51.502;7.414;2022-12-10T09:12:13;28.17;;;20.20;;
2542;SDS011;1116;51.502;7.414;2022-12-10T09:14:44;25.55;;;18.10;;
2542;SDS011;1116;51.502;7.414;2022-12-10T09:17:15;28.33;;;19.17;;
2542;SDS011;1116;51.502;7.414;2022-12-10T09:19:45;30.38;;;20.30;;
2542;SDS011;1116;51.502;7.414;2022-12-10T09:22:16;29.95;;;19.10;;
2542;SDS011;1116;51.502;7.414;2022-12-10T09:24:50;28.95;;;18.35;;
2542;SDS011;1116;51.502;7.414;2022-12-10T09:27:21;28.67;;;18.85;;
2542;SDS011;1116;51.502;7.414;2022-12-10T09:32:41;31.17;;;19.05;;
2542;SDS011;1116;51.502;7.414;2022-12-10T09:35:14;28.02;;;17.20;;
2542;SDS011;1116;51.502;7.414;2022-12-10T09:37:45;25.42;;;17.20;;
2542;SDS011;1116;51.502;7.414;2022-12-10T09:40:21;29.45;;;18.38;;
2542;SDS011;1116;51.502;7.414;2022-12-10T09:43:01;23.50;;;16.35;;
2542;SDS011;1116;51.502;7.414;2022-12-10T09:45:47;28.35;;;19.65;;
2542;SDS011;1116;51.502;7.414;2022-12-10T09:48:26;24.17;;;17.35;;
2542;SDS011;1116;51.502;7.414;2022-12-10T09:51:03;28.45;;;18.20;;
2542;SDS011;1116;51.502;7.414;2022-12-10T09:53:53;26.80;;;18.83;;
2542;SDS011;1116;51.502;7.414;2022-12-10T09:56:31;26.13;;;18.02;;
2542;SDS011;1116;51.502;7.414;2022-12-10T09:59:11;29.88;;;21.10;;
2542;SDS011;1116;51.502;7.414;2022-12-10T10:01:47;30.60;;;20.45;;
2542;SDS011;1116;51.502;7.414;2022-12-10T10:04:33;35.08;;;22.60;;
2542;SDS011;1116;51.502;7.414;2022-12-10T10:07:04;34.42;;;22.52;;
2542;SDS011;1116;51.502;7.414;2022-12-10T10:09:36;32.72;;;21.85;;
2542;SDS011;1116;51.502;7.414;2022-12-10T10:12:15;32.63;;;22.05;;
2542;SDS011;1116;51.502;7.414;2022-12-10T10:14:46;30.35;;;22.25;;
2542;SDS011;1116;51.502;7.414;2022-12-10T10:17:19;36.67;;;24.60;;
2542;SDS011;1116;51.502;7.414;2022-12-10T10:19:59;41.60;;;25.20;;
2542;SDS011;1116;51.502;7.414;2022-12-10T10:22:32;40.25;;;26.48;;
2542;SDS011;1116;51.502;7.414;2022-12-10T10:25:04;44.35;;;26.48;;
2542;SDS011;1116;51.502;7.414;2022-12-10T10:27:38;44.85;;;26.60;;
2542;SDS011;1116;51.502;7.414;2022-12-10T10:30:13;51.40;;;27.90;;
2542;SDS011;1116;51.502;7.414;2022-12-10T10:32:47;46.15;;;28.00;;
2542;SDS011;1116;51.502;7.414;2022-12-10T10:35:24;51.92;;;28.65;;
2542;SDS011;1116;51.502;7.414;2022-12-10T10:37:59;48.88;;;28.75;;
2542;SDS011;1116;51.502;7.414;2022-12-10T10:40:32;57.03;;;32.38;;
2542;SDS011;1116;51.502;7.414;2022-12-10T10:43:15;49.92;;;30.58;;
2542;SDS011;1116;51.502;7.414;2022-12-10T10:45:51;52.28;;;29.10;;
2542;SDS011;1116;51.502;7.414;2022-12-10T10:48:24;47.80;;;28.48;;
2542;SDS011;1116;51.502;7.414;2022-12-10T10:51:05;53.35;;;30.10;;
2542;SDS011;1116;51.502;7.414;2022-12-10T10:53:40;51.65;;;29.95;;
2542;SDS011;1116;51.502;7.414;2022-12-10T10:56:13;49.50;;;29.55;;
2542;SDS011;1116;51.502;7.414;2022-12-10T10:58:56;52.58;;;30.67;;
2542;SDS011;1116;51.502;7.414;2022-12-10T11:01:42;49.40;;;28.08;;
2542;SDS011;1116;51.502;7.414;2022-12-10T11:04:15;57.85;;;32.25;;
2542;SDS011;1116;51.502;7.414;2022-12-10T11:06:48;63.78;;;33.20;;
2542;SDS011;1116;51.502;7.414;2022-12-10T11:09:26;62.45;;;34.80;;
2542;SDS011;1116;51.502;7.414;2022-12-10T11:11:59;56.13;;;30.55;;
2542;SDS011;1116;51.502;7.414;2022-12-10T11:14:38;48.72;;;28.90;;
2542;SDS011;1116;51.502;7.414;2022-12-10T11:17:16;47.90;;;27.88;;
2542;SDS011;1116;51.502;7.414;2022-12-10T11:19:54;41.92;;;24.88;;
2542;SDS011;1116;51.502;7.414;2022-12-10T11:22:30;48.85;;;26.20;;
2542;SDS011;1116;51.502;7.414;2022-12-10T11:25:04;45.50;;;27.45;;
2542;SDS011;1116;51.502;7.414;2022-12-10T11:27:45;47.42;;;26.88;;
2542;SDS011;1116;51.502;7.414;2022-12-10T11:30:25;46.95;;;27.95;;
2542;SDS011;1116;51.502;7.414;2022-12-10T11:33:01;50.63;;;26.33;;
2542;SDS011;1116;51.502;7.414;2022-12-10T11:35:50;51.70;;;28.67;;
2542;SDS011;1116;51.502;7.414;2022-12-10T11:38:30;47.90;;;27.40;;
2542;SDS011;1116;51.502;7.414;2022-12-10T11:41:11;49.13;;;28.70;;
2542;SDS011;1116;51.502;7.414;2022-12-10T11:43:56;52.30;;;27.30;;
2542;SDS011;1116;51.502;7.414;2022-12-10T11:46:55;54.38;;;28.90;;
2542;SDS011;1116;51.502;7.414;2022-12-10T11:49:35;50.28;;;28.83;;
2542;SDS011;1116;51.502;7.414;2022-12-10T11:52:13;55.92;;;30.02;;
2542;SDS011;1116;51.502;7.414;2022-12-10T11:54:53;53.58;;;28.38;;
2542;SDS011;1116;51.502;7.414;2022-12-10T11:57:41;50.05;;;27.67;;
2542;SDS011;1116;51.502;7.414;2022-12-10T12:00:20;51.80;;;26.40;;
2542;SDS011;1116;51.502;7.414;2022-12-10T12:03:00;52.15;;;28.38;;
2542;SDS011;1116;51.502;7.414;2022-12-10T12:05:58;54.90;;;27.63;;
2542;SDS011;1116;51.502;7.414;2022-12-10T12:08:50;47.25;;;27.67;;
2542;SDS011;1116;51.502;7.414;2022-12-10T12:11:35;51.10;;;29.80;;
2542;SDS011;1116;51.502;7.414;2022-12-10T12:14:22;55.03;;;28.90;;
2542;SDS011;1116;51.502;7.414;2022-12-10T12:17:00;53.05;;;28.83;;
2542;SDS011;1116;51.502;7.414;2022-12-10T12:19:40;54.97;;;28.05;;
2542;SDS011;1116;51.502;7.414;2022-12-10T12:22:20;51.13;;;27.42;;
2542;SDS011;1116;51.502;7.414;2022-12-10T12:24:54;54.15;;;28.25;;
2542;SDS011;1116;51.502;7.414;2022-12-10T12:27:30;51.65;;;28.55;;
2542;SDS011;1116;51.502;7.414;2022-12-10T12:30:06;52.47;;;28.30;;
2542;SDS011;1116;51.502;7.414;2022-12-10T12:32:46;49.08;;;28.10;;
2542;SDS011;1116;51.502;7.414;2022-12-10T12:35:27;48.85;;;27.52;;
2542;SDS011;1116;51.502;7.414;2022-12-10T12:38:03;51.72;;;27.45;;
2542;SDS011;1116;51.502;7.414;2022-12-10T12:40:58;48.92;;;27.20;;
2542;SDS011;1116;51.502;7.414;2022-12-10T12:43:37;55.85;;;28.25;;
2542;SDS011;1116;51.502;7.414;2022-12-10T12:46:15;42.15;;;25.08;;
2542;SDS011;1116;51.502;7.414;2022-12-10T12:48:51;58.45;;;31.80;;
2542;SDS011;1116;51.502;7.414;2022-12-10T12:51:31;52.05;;;28.67;;
2542;SDS011;1116;51.502;7.414;2022-12-10T12:54:07;51.67;;;28.38;;
2542;SDS011;1116;51.502;7.414;2022-12-10T12:56:50;66.95;;;28.10;;
2542;SDS011;1116;51.502;7.414;2022-12-10T12:59:32;51.42;;;28.23;;
2542;SDS011;1116;51.502;7.414;2022-12-10T13:02:15;51.17;;;27.40;;
2542;SDS011;1116;51.502;7.414;2022-12-10T13:04:52;48.78;;;26.80;;
2542;SDS011;1116;51.502;7.414;2022-12-10T13:07:34;49.08;;;27.60;;
2542;SDS011;1116;51.502;7.414;2022-12-10T13:13:17;53.22;;;27.73;;
2542;SDS011;1116;51.502;7.414;2022-12-10T13:15:54;58.00;;;28.00;;
2542;SDS011;1116;51.502;7.414;2022-12-10T13:18:34;54.80;;;29.05;;
2542;SDS011;1116;51.502;7.414;2022-12-10T13:21:19;57.83;;;29.83;;
2542;SDS011;1116;51.502;7.414;2022-12-10T13:24:10;60.28;;;30.02;;
2542;SDS011;1116;51.502;7.414;2022-12-10T13:29:44;54.17;;;28.75;;
2542;SDS011;1116;51.502;7.414;2022-12-10T13:32:18;59.95;;;30.58;;
2542;SDS011;1116;51.502;7.414;2022-12-10T13:37:56;67.35;;;34.05;;
2542;SDS011;1116;51.502;7.414;2022-12-10T13:40:41;62.13;;;33.42;;
2542;SDS011;1116;51.502;7.414;2022-12-10T13:43:29;57.03;;;29.00;;
2542;SDS011;1116;51.502;7.414;2022-12-10T13:46:20;51.53;;;29.42;;
2542;SDS011;1116;51.502;7.414;2022-12-10T13:48:53;56.35;;;30.73;;
2542;SDS011;1116;51.502;7.414;2022-12-10T13:57:37;51.67;;;28.75;;
2542;SDS011;1116;51.502;7.414;2022-12-10T14:00:19;48.47;;;28.00;;
2542;SDS011;1116;51.502;7.414;2022-12-10T14:06:12;51.90;;;26.45;;
2542;SDS011;1116;51.502;7.414;2022-12-10T14:08:55;41.83;;;23.83;;
2542;SDS011;1116;51.502;7.414;2022-12-10T14:11:31;44.33;;;25.55;;
2542;SDS011;1116;51.502;7.414;2022-12-10T14:14:10;45.53;;;25.75;;
2542;SDS011;1116;51.502;7.414;2022-12-10T14:16:46;48.70;;;26.02;;
2542;SDS011;1116;51.502;7.414;2022-12-10T14:19:23;46.17;;;26.25;;
2542;SDS011;1116;51.502;7.414;2022-12-10T14:21:57;47.53;;;25.92;;
2542;SDS011;1116;51.502;7.414;2022-12-10T14:24:29;45.25;;;25.58;;
2542;SDS011;1116;51.502;7.414;2022-12-10T14:27:05;46.53;;;26.90;;
2542;SDS011;1116;51.502;7.414;2022-12-10T14:29:46;48.00;;;28.83;;
2542;SDS011;1116;51.502;7.414;2022-12-10T14:32:18;53.72;;;29.35;;
2542;SDS011;1116;51.502;7.414;2022-12-10T14:34:55;50.97;;;26.95;;
2542;SDS011;1116;51.502;7.414;2022-12-10T14:37:52;49.05;;;28.02;;
2542;SDS011;1116;51.502;7.414;2022-12-10T14:40:25;47.40;;;28.42;;
2542;SDS011;1116;51.502;7.414;2022-12-10T14:43:02;49.03;;;27.45;;
2542;SDS011;1116;51.502;7.414;2022-12-10T14:45:38;47.25;;;27.35;;
2542;SDS011;1116;51.502;7.414;2022-12-10T14:48:14;42.92;;;26.33;;
2542;SDS011;1116;51.502;7.414;2022-12-10T14:50:47;45.58;;;26.67;;
2542;SDS011;1116;51.502;7.414;2022-12-10T14:53:20;47.90;;;25.83;;
2542;SDS011;1116;51.502;7.414;2022-12-10T14:55:59;54.40;;;28.95;;
2542;SDS011;1116;51.502;7.414;2022-12-10T14:58:35;44.70;;;26.90;;
2542;SDS011;1116;51.502;7.414;2022-12-10T15:01:12;51.08;;;27.90;;
2542;SDS011;1116;51.502;7.414;2022-12-10T15:03:47;51.00;;;26.92;;
2542;SDS011;1116;51.502;7.414;2022-12-10T15:06:19;57.13;;;31.17;;
2542;SDS011;1116;51.502;7.414;2022-12-10T15:08:54;51.45;;;29.45;;
2542;SDS011;1116;51.502;7.414;2022-12-10T15:11:27;43.42;;;26.45;;
2542;SDS011;1116;51.502;7.414;2022-12-10T15:13:59;51.35;;;28.35;;
2542;SDS011;1116;51.502;7.414;2022-12-10T15:16:40;53.42;;;30.20;;
2542;SDS011;1116;51.502;7.414;2022-12-10T15:19:16;50.50;;;27.92;;
2542;SDS011;1116;51.502;7.414;2022-12-10T15:21:51;55.10;;;29.58;;
2542;SDS011;1116;51.502;7.414;2022-12-10T15:24:35;47.28;;;26.98;;
2542;SDS011;1116;51.502;7.414;2022-12-10T15:27:14;44.85;;;26.58;;
2542;SDS011;1116;51.502;7.414;2022-12-10T15:29:47;49.65;;;27.30;;
2542;SDS011;1116;51.502;7.414;2022-12-10T15:32:22;54.75;;;28.27;;
2542;SDS011;1116;51.502;7.414;2022-12-10T15:34:57;45.45;;;27.25;;
2542;SDS011;1116;51.502;7.414;2022-12-10T15:37:34;51.72;;;26.48;;
2542;SDS011;1116;51.502;7.414;2022-12-10T15:40:22;51.97;;;28.50;;
2542;SDS011;1116;51.502;7.414;2022-12-10T15:43:10;48.95;;;28.10;;
2542;SDS011;1116;51.502;7.414;2022-12-10T15:45:48;50.92;;;27.65;;
2542;SDS011;1116;51.502;7.414;2022-12-10T15:48:27;48.70;;;27.20;;
2542;SDS011;1116;51.502;7.414;2022-12-10T15:50:59;46.65;;;27.05;;
2542;SDS011;1116;51.502;7.414;2022-12-10T15:53:34;52.03;;;31.05;;
2542;SDS011;1116;51.502;7.414;2022-12-10T15:56:08;57.63;;;30.48;;
2542;SDS011;1116;51.502;7.414;2022-12-10T15:58:40;52.05;;;30.10;;
2542;SDS011;1116;51.502;7.414;2022-12-10T16:01:12;54.60;;;30.45;;
2542;SDS011;1116;51.502;7.414;2022-12-10T16:03:46;57.83;;;30.95;;
2542;SDS011;1116;51.502;7.414;2022-12-10T16:06:17;52.03;;;30.48;;
2542;SDS011;1116;51.502;7.414;2022-12-10T16:08:48;62.55;;;34.45;;